createdAt,value
2019-04-12T00:00:51.648Z,5.53
2019-04-12T00:03:21.447Z,4.62
2019-04-12T00:05:51.304Z,6.90
2019-04-12T00:08:22.346Z,5.42
2019-04-12T00:10:52.611Z,9.73
2019-04-12T00:13:22.334Z,6.80
2019-04-12T00:15:52.170Z,7.75
2019-04-12T00:18:21.979Z,6.25
2019-04-12T00:20:53.616Z,9.13
2019-04-12T00:23:23.992Z,5.95
2019-04-12T00:25:53.860Z,6.42
2019-04-12T00:28:23.810Z,8.68
2019-04-12T00:30:53.806Z,6.17
2019-04-12T00:33:23.882Z,8.63
2019-04-12T00:35:53.667Z,5.33
2019-04-12T00:38:26.852Z,8.80
2019-04-12T00:40:56.870Z,8.85
2019-04-12T00:43:26.705Z,8.15
2019-04-12T00:45:57.506Z,7.70
2019-04-12T00:48:27.338Z,7.60
2019-04-12T00:50:57.199Z,10.10
2019-04-12T00:53:27.100Z,6.67
2019-04-12T00:55:56.915Z,7.97
2019-04-12T00:58:26.788Z,13.85
2019-04-12T01:01:19.305Z,6.08
2019-04-12T01:03:54.457Z,10.00
2019-04-12T01:06:24.386Z,9.00
2019-04-12T01:08:54.186Z,16.67
2019-04-12T01:11:25.055Z,8.40
2019-04-12T01:13:58.224Z,10.03
2019-04-12T01:16:30.902Z,8.55
2019-04-12T01:19:02.203Z,8.28
2019-04-12T01:21:31.676Z,10.23
2019-04-12T01:24:01.520Z,8.40
2019-04-12T01:26:31.340Z,10.08
2019-04-12T01:29:01.134Z,9.38
2019-04-12T01:31:30.972Z,9.80
2019-04-12T01:34:01.356Z,7.22
2019-04-12T01:36:31.225Z,6.83
2019-04-12T01:39:01.052Z,10.93
2019-04-12T01:41:32.517Z,8.75
2019-04-12T01:44:02.447Z,8.55
2019-04-12T01:46:32.292Z,9.75
2019-04-12T01:49:02.149Z,7.45
2019-04-12T01:51:32.127Z,10.78
2019-04-12T01:54:02.138Z,7.35
2019-04-12T01:56:32.118Z,9.70
2019-04-12T01:59:02.005Z,10.45
2019-04-12T02:01:32.081Z,9.98
2019-04-12T02:04:02.354Z,7.55
2019-04-12T02:06:32.117Z,7.80
2019-04-12T02:09:01.867Z,7.12
2019-04-12T02:11:33.203Z,8.75
2019-04-12T02:14:03.111Z,12.75
2019-04-12T02:16:33.049Z,7.05
2019-04-12T02:19:02.861Z,6.22
2019-04-12T02:21:33.391Z,6.53
2019-04-12T02:24:03.192Z,8.98
2019-04-12T02:26:33.115Z,8.78
2019-04-12T02:29:02.864Z,7.15
2019-04-12T02:31:47.815Z,7.92
2019-04-12T02:34:17.839Z,9.95
2019-04-12T02:36:47.752Z,17.42
2019-04-12T02:39:17.537Z,11.45
2019-04-12T02:41:48.438Z,10.75
2019-04-12T02:44:19.755Z,8.60
2019-04-12T02:46:57.781Z,7.62
2019-04-12T02:49:43.927Z,10.90
2019-04-12T02:52:24.618Z,7.45
2019-04-12T02:55:17.034Z,9.73
2019-04-12T02:57:52.889Z,10.55
2019-04-12T03:00:49.291Z,7.47
2019-04-12T03:03:20.288Z,7.42
2019-04-12T03:05:50.387Z,9.38
2019-04-12T03:08:20.241Z,10.50
2019-04-12T03:10:52.992Z,7.03
2019-04-12T03:13:24.744Z,6.03
2019-04-12T03:15:55.263Z,4.75
2019-04-12T03:18:25.703Z,5.60
2019-04-12T03:20:56.376Z,7.25
2019-04-12T03:23:26.700Z,6.60
2019-04-12T03:25:58.390Z,4.28
2019-04-12T03:28:29.250Z,5.35
2019-04-12T03:30:59.482Z,5.80
2019-04-12T03:33:29.491Z,7.67
2019-04-12T03:36:00.015Z,9.25
2019-04-12T03:38:29.910Z,7.45
2019-04-12T03:40:59.955Z,5.97
2019-04-12T03:43:30.077Z,7.70
2019-04-12T03:45:59.963Z,9.70
2019-04-12T03:48:30.209Z,8.00
2019-04-12T03:50:59.951Z,10.38
2019-04-12T03:53:29.971Z,5.83
2019-04-12T03:56:08.141Z,7.85
2019-04-12T03:58:31.794Z,10.70
2019-04-12T04:01:03.859Z,6.33
2019-04-12T04:03:34.185Z,3.80
2019-04-12T04:06:04.218Z,9.75
2019-04-12T04:08:35.263Z,7.62
2019-04-12T04:11:05.518Z,8.18
2019-04-12T04:13:35.434Z,6.80
2019-04-12T04:16:08.559Z,5.58
2019-04-12T04:18:39.807Z,8.35
2019-04-12T04:21:24.982Z,6.75
2019-04-12T04:24:16.000Z,5.40
2019-04-12T04:27:04.617Z,9.08
2019-04-12T04:29:55.711Z,4.80
2019-04-12T04:32:39.459Z,4.67
2019-04-12T04:35:09.926Z,5.65
2019-04-12T04:37:42.801Z,7.60
2019-04-12T04:40:14.402Z,5.75
2019-04-12T04:42:44.364Z,5.25
2019-04-12T04:45:14.462Z,4.60
2019-04-12T04:47:44.890Z,4.22
2019-04-12T04:50:15.238Z,4.33
2019-04-12T04:52:46.357Z,3.25
2019-04-12T04:55:16.276Z,4.37
2019-04-12T04:57:46.230Z,6.90
2019-04-12T05:00:16.853Z,8.05
2019-04-12T05:02:46.741Z,3.72
2019-04-12T05:05:17.009Z,3.90
2019-04-12T05:07:46.969Z,4.42
2019-04-12T05:10:16.947Z,5.15
2019-04-12T05:12:46.843Z,4.83
2019-04-12T05:15:16.919Z,6.67
2019-04-12T05:17:47.578Z,3.33
2019-04-12T05:20:17.799Z,4.97
2019-04-12T05:22:49.435Z,3.40
2019-04-12T05:25:19.945Z,3.80
2019-04-12T05:27:49.795Z,3.20
2019-04-12T05:30:20.129Z,4.25
2019-04-12T05:32:50.125Z,2.58
2019-04-12T05:35:20.605Z,3.75
2019-04-12T05:37:50.578Z,4.42
2019-04-12T05:40:20.543Z,3.85
2019-04-12T05:42:50.464Z,4.08
2019-04-12T05:45:24.695Z,2.58
2019-04-12T05:47:59.296Z,3.30
2019-04-12T05:50:36.381Z,3.80
2019-04-12T05:53:06.683Z,4.00
2019-04-12T05:55:40.817Z,3.95
2019-04-12T05:58:20.141Z,4.70
2019-04-12T06:01:16.902Z,3.60
2019-04-12T06:03:47.213Z,4.08
2019-04-12T06:06:17.169Z,4.33
2019-04-12T06:08:47.207Z,4.33
2019-04-12T06:11:17.055Z,3.33
2019-04-12T06:13:46.993Z,3.15
2019-04-12T06:16:17.014Z,4.87
2019-04-12T06:18:48.502Z,6.35
2019-04-12T06:21:43.734Z,2.62
2019-04-12T06:24:13.891Z,3.67
2019-04-12T06:26:55.281Z,2.40
2019-04-12T06:29:25.083Z,2.55
2019-04-12T06:31:55.210Z,4.78
2019-04-12T06:34:25.613Z,5.60
2019-04-12T06:36:55.590Z,4.47
2019-04-12T06:39:25.510Z,2.65
2019-04-12T06:41:55.433Z,2.05
2019-04-12T06:44:25.263Z,4.95
2019-04-12T06:46:56.780Z,1.80
2019-04-12T06:49:26.628Z,3.30
2019-04-12T06:51:56.363Z,6.08
2019-04-12T06:54:26.217Z,4.55
2019-04-12T06:57:33.642Z,2.62
2019-04-12T07:00:29.910Z,5.65
2019-04-12T07:03:10.130Z,4.20
2019-04-12T07:05:39.877Z,5.40
2019-04-12T07:08:09.857Z,3.22
2019-04-12T07:10:39.748Z,3.08
2019-04-12T07:13:09.566Z,3.17
2019-04-12T07:15:39.330Z,3.40
2019-04-12T07:18:09.286Z,4.90
2019-04-12T07:20:39.114Z,5.40
2019-04-12T07:23:08.930Z,2.33
2019-04-12T07:25:38.716Z,5.33
2019-04-12T07:28:08.572Z,2.37
2019-04-12T07:30:38.422Z,4.62
2019-04-12T07:33:08.279Z,2.42
2019-04-12T07:35:38.034Z,2.50
2019-04-12T07:38:09.034Z,2.85
2019-04-12T07:40:38.767Z,4.65
2019-04-12T07:43:08.546Z,3.98
2019-04-12T07:45:38.354Z,2.05
2019-04-12T07:48:08.112Z,2.50
2019-04-12T07:50:58.184Z,2.62
2019-04-12T07:53:37.103Z,2.00
2019-04-12T07:56:08.532Z,5.20
2019-04-12T07:58:57.512Z,3.10
2019-04-12T08:01:45.348Z,3.10
2019-04-12T08:04:25.145Z,1.73
2019-04-12T08:07:04.407Z,2.40
2019-04-12T08:09:34.165Z,10.67
2019-04-12T08:12:03.929Z,3.43
2019-04-12T08:14:33.761Z,3.50
2019-04-12T08:17:05.383Z,2.03
2019-04-12T08:19:35.719Z,1.90
2019-04-12T08:22:05.587Z,2.13
2019-04-12T08:24:35.469Z,8.00
2019-04-12T08:27:05.300Z,10.83
2019-04-12T08:29:35.279Z,2.27
2019-04-12T08:32:05.106Z,4.30
2019-04-12T08:34:34.923Z,2.50
2019-04-12T08:37:04.714Z,4.47
2019-04-12T08:39:34.519Z,8.83
2019-04-12T08:42:04.431Z,7.70
2019-04-12T08:44:34.213Z,3.90
2019-04-12T08:47:03.975Z,6.53
2019-04-12T08:49:33.858Z,6.20
2019-04-12T08:52:03.695Z,6.70
2019-04-12T08:54:33.580Z,2.17
2019-04-12T08:57:03.385Z,3.70
2019-04-12T08:59:33.233Z,4.47
2019-04-12T09:02:03.111Z,2.10
2019-04-12T09:04:32.949Z,3.23
2019-04-12T09:07:02.783Z,4.33
2019-04-12T09:09:32.533Z,7.50
2019-04-12T09:12:02.346Z,8.77
2019-04-12T09:14:32.175Z,1.93
2019-04-12T09:17:02.013Z,2.73
2019-04-12T09:19:54.253Z,3.10
2019-04-12T09:22:42.744Z,3.03
2019-04-12T09:25:40.863Z,1.87
2019-04-12T09:28:23.627Z,1.97
2019-04-12T09:30:43.499Z,5.40
2019-04-12T09:33:13.358Z,1.50
2019-04-12T09:35:43.149Z,4.80
2019-04-12T09:38:13.132Z,2.90
2019-04-12T09:40:43.024Z,4.53
2019-04-12T09:43:12.811Z,3.47
2019-04-12T09:45:42.578Z,2.13
2019-04-12T09:48:12.596Z,3.50
2019-04-12T09:50:43.371Z,3.67
2019-04-12T09:53:13.206Z,2.90
2019-04-12T09:55:43.108Z,3.10
2019-04-12T09:58:13.194Z,2.07
2019-04-12T10:00:42.992Z,4.67
2019-04-12T10:03:13.085Z,6.10
2019-04-12T10:05:44.867Z,3.30
2019-04-12T10:08:14.530Z,5.13
2019-04-12T10:10:44.332Z,2.90
2019-04-12T10:13:14.164Z,3.00
2019-04-12T10:15:43.947Z,3.20
2019-04-12T10:18:13.734Z,3.27
2019-04-12T10:20:43.649Z,4.57
2019-04-12T10:23:13.520Z,3.03
2019-04-12T10:25:43.406Z,3.33
2019-04-12T10:28:13.326Z,7.20
2019-04-12T10:30:44.866Z,3.60
2019-04-12T10:33:15.204Z,2.10
2019-04-12T10:35:44.914Z,4.60
2019-04-12T10:38:15.850Z,7.23
2019-04-12T10:40:45.968Z,3.40
2019-04-12T10:43:15.725Z,3.47
2019-04-12T10:46:03.416Z,3.87
2019-04-12T10:48:51.661Z,2.63
2019-04-12T10:51:55.606Z,3.57
2019-04-12T10:54:29.535Z,8.33
2019-04-12T10:56:59.378Z,9.90
2019-04-12T10:59:29.361Z,5.20
2019-04-12T11:01:59.274Z,16.87
2019-04-12T11:04:29.096Z,2.90
2019-04-12T11:06:58.825Z,2.70
2019-04-12T11:09:28.879Z,4.33
2019-04-12T11:11:58.990Z,4.70
2019-04-12T11:14:28.804Z,9.20
2019-04-12T11:16:59.550Z,3.53
2019-04-12T11:19:29.605Z,7.23
2019-04-12T11:21:59.501Z,6.07
2019-04-12T11:24:29.291Z,6.03
2019-04-12T11:27:02.259Z,3.83
2019-04-12T11:29:32.021Z,4.63
2019-04-12T11:32:01.798Z,4.43
2019-04-12T11:34:31.746Z,7.00
2019-04-12T11:37:01.562Z,4.53
2019-04-12T11:39:31.276Z,4.87
2019-04-12T11:42:02.452Z,5.77
2019-04-12T11:44:32.373Z,4.30
2019-04-12T11:47:02.123Z,5.77
2019-04-12T11:49:32.025Z,6.00
2019-04-12T11:52:01.758Z,6.00
2019-04-12T11:54:31.758Z,5.70
2019-04-12T11:57:01.521Z,5.10
2019-04-12T11:59:31.439Z,5.20
2019-04-12T12:02:06.894Z,12.33
2019-04-12T12:04:58.725Z,4.50
2019-04-12T12:07:36.141Z,6.10
2019-04-12T12:10:24.767Z,5.97
2019-04-12T12:13:05.283Z,5.83
2019-04-12T12:15:52.813Z,14.83
2019-04-12T12:18:27.067Z,8.10
2019-04-12T12:20:56.838Z,6.93
2019-04-12T12:23:26.743Z,5.30
2019-04-12T12:25:56.553Z,7.00
2019-04-12T12:28:26.259Z,6.30
2019-04-12T12:30:56.026Z,6.17
2019-04-12T12:33:25.775Z,5.70
2019-04-12T12:35:55.718Z,9.40
2019-04-12T12:38:25.573Z,11.30
2019-04-12T12:40:55.605Z,6.17
2019-04-12T12:43:25.631Z,5.77
2019-04-12T12:45:56.523Z,9.80
2019-04-12T12:48:26.319Z,5.40
2019-04-12T12:50:56.105Z,13.67
2019-04-12T12:53:29.583Z,10.37
2019-04-12T12:55:59.489Z,7.27
2019-04-12T12:58:29.235Z,8.70
2019-04-12T13:00:59.253Z,6.60
2019-04-12T13:03:29.027Z,6.10
2019-04-12T13:06:02.012Z,7.83
2019-04-12T13:08:30.438Z,5.63
2019-04-12T13:11:00.349Z,7.87
2019-04-12T13:13:30.100Z,12.90
2019-04-12T13:15:59.898Z,9.87
2019-04-12T13:18:29.630Z,7.87
2019-04-12T13:21:00.712Z,9.43
2019-04-12T13:23:31.641Z,10.20
2019-04-12T13:26:01.510Z,7.23
2019-04-12T13:28:31.366Z,8.10
2019-04-12T13:31:19.259Z,11.30
2019-04-12T13:34:00.435Z,6.30
2019-04-12T13:36:48.331Z,6.70
2019-04-12T13:39:31.798Z,6.77
2019-04-12T13:42:01.886Z,12.27
2019-04-12T13:44:31.770Z,8.10
2019-04-12T13:47:01.477Z,7.00
2019-04-12T13:49:31.237Z,5.90
2019-04-12T13:52:02.337Z,7.03
2019-04-12T13:54:32.414Z,8.90
2019-04-12T13:57:03.163Z,5.50
2019-04-12T13:59:33.096Z,6.03
2019-04-12T14:02:02.944Z,19.30
2019-04-12T14:04:32.754Z,5.03
2019-04-12T14:07:02.537Z,14.63
2019-04-12T14:09:32.518Z,12.47
2019-04-12T14:12:02.406Z,5.63
2019-04-12T14:14:32.305Z,7.00
2019-04-12T14:17:02.182Z,10.83
2019-04-12T14:19:31.975Z,7.80
2019-04-12T14:22:01.706Z,8.33
2019-04-12T14:24:31.431Z,8.30
2019-04-12T14:27:02.913Z,9.37
2019-04-12T14:29:32.785Z,12.57
2019-04-12T14:32:04.317Z,10.10
2019-04-12T14:34:45.762Z,12.70
2019-04-12T14:37:20.325Z,9.93
2019-04-12T14:39:50.035Z,7.10
2019-04-12T14:42:20.022Z,9.33
2019-04-12T14:44:57.084Z,9.23
2019-04-12T14:47:42.308Z,9.80
2019-04-12T14:50:12.324Z,8.70
2019-04-12T14:52:43.028Z,6.77
2019-04-12T14:55:12.954Z,6.87
2019-04-12T14:57:42.604Z,6.37
2019-04-12T15:00:14.651Z,9.97
2019-04-12T15:02:44.358Z,10.57
2019-04-12T15:05:14.301Z,13.50
2019-04-12T15:07:44.297Z,11.23
2019-04-12T15:10:14.309Z,8.63
2019-04-12T15:12:44.217Z,8.37
2019-04-12T15:15:14.249Z,14.57
2019-04-12T15:17:44.019Z,6.40
2019-04-12T15:20:13.945Z,6.60
2019-04-12T15:22:44.844Z,10.03
2019-04-12T15:25:17.527Z,14.90
2019-04-12T15:27:47.291Z,8.37
2019-04-12T15:30:17.491Z,7.33
2019-04-12T15:32:47.406Z,9.23
2019-04-12T15:35:17.465Z,9.33
2019-04-12T15:37:48.997Z,8.43
2019-04-12T15:40:18.864Z,11.23
2019-04-12T15:42:48.818Z,8.67
2019-04-12T15:45:20.721Z,8.23
2019-04-12T15:47:50.619Z,7.30
2019-04-12T15:50:26.482Z,7.20
2019-04-12T15:52:56.372Z,8.67
2019-04-12T15:55:26.202Z,11.37
2019-04-12T15:57:55.948Z,8.10
2019-04-12T16:01:10.929Z,8.80
2019-04-12T16:03:33.500Z,8.93
2019-04-12T16:06:05.228Z,8.97
2019-04-12T16:08:48.232Z,16.03
2019-04-12T16:11:20.556Z,7.83
2019-04-12T16:14:12.269Z,9.63
2019-04-12T16:17:15.054Z,7.97
2019-04-12T16:19:46.390Z,9.93
2019-04-12T16:22:18.251Z,10.07
2019-04-12T16:24:48.611Z,9.00
2019-04-12T16:27:18.457Z,8.90
2019-04-12T16:30:00.225Z,7.77
2019-04-12T16:33:01.448Z,8.37
2019-04-12T16:35:39.741Z,11.43
2019-04-12T16:38:12.504Z,8.13
2019-04-12T16:40:42.530Z,9.47
2019-04-12T16:43:12.395Z,12.20
2019-04-12T16:45:42.414Z,8.13
2019-04-12T16:48:12.301Z,8.50
2019-04-12T16:50:42.290Z,11.47
2019-04-12T16:53:12.132Z,7.63
2019-04-12T16:55:41.922Z,7.60
2019-04-12T16:58:12.132Z,8.53
2019-04-12T17:00:42.234Z,9.67
2019-04-12T17:03:12.021Z,9.83
2019-04-12T17:05:42.192Z,8.27
2019-04-12T17:08:12.047Z,9.20
2019-04-12T17:10:42.526Z,8.90
2019-04-12T17:13:12.262Z,8.80
2019-04-12T17:15:42.534Z,10.23
2019-04-12T17:18:12.672Z,10.93
2019-04-12T17:20:43.538Z,14.00
2019-04-12T17:23:13.530Z,7.37
2019-04-12T17:25:45.142Z,8.83
2019-04-12T17:28:14.955Z,9.97
2019-04-12T17:30:45.102Z,12.03
2019-04-12T17:33:15.467Z,10.87
2019-04-12T17:35:45.540Z,9.53
2019-04-12T17:38:17.050Z,11.48
2019-04-12T17:40:46.853Z,11.10
2019-04-12T17:43:16.606Z,11.73
2019-04-12T17:45:46.502Z,11.30
2019-04-12T17:48:26.138Z,14.55
2019-04-12T17:50:56.989Z,9.10
2019-04-12T17:53:33.729Z,10.97
2019-04-12T17:56:08.914Z,10.03
2019-04-12T17:58:38.852Z,9.20
2019-04-12T18:01:18.799Z,13.03
2019-04-12T18:03:51.792Z,12.00
2019-04-12T18:06:21.621Z,8.27
2019-04-12T18:08:53.635Z,13.00
2019-04-12T18:11:31.734Z,27.00
2019-04-12T18:14:03.520Z,13.07
2019-04-12T18:16:33.483Z,12.97
2019-04-12T18:19:03.609Z,11.38
2019-04-12T18:21:34.557Z,10.87
2019-04-12T18:24:04.589Z,9.70
2019-04-12T18:26:36.692Z,9.00
2019-04-12T18:29:06.567Z,11.83
2019-04-12T18:31:36.533Z,12.93
2019-04-12T18:34:07.795Z,11.00
2019-04-12T18:36:37.764Z,12.07
2019-04-12T18:39:10.784Z,9.40
2019-04-12T18:41:43.221Z,11.30
2019-04-12T18:44:13.078Z,11.30
2019-04-12T18:46:43.248Z,13.22
2019-04-12T18:49:15.374Z,11.67
2019-04-12T18:51:45.943Z,10.10
2019-04-12T18:54:17.004Z,13.23
2019-04-12T18:56:47.101Z,11.30
2019-04-12T18:59:26.032Z,12.63
2019-04-12T19:01:56.263Z,15.15
2019-04-12T19:04:26.550Z,14.27
2019-04-12T19:06:56.837Z,12.10
2019-04-12T19:09:26.701Z,10.90
2019-04-12T19:11:56.698Z,9.33
2019-04-12T19:14:27.130Z,10.00
2019-04-12T19:16:57.143Z,16.45
2019-04-12T19:19:27.072Z,10.93
2019-04-12T19:21:57.002Z,11.17
2019-04-12T19:24:27.805Z,11.57
2019-04-12T19:26:57.595Z,8.73
2019-04-12T19:29:27.326Z,12.23
2019-04-12T19:32:25.425Z,11.40
2019-04-12T19:35:05.047Z,10.40
2019-04-12T19:37:58.553Z,8.85
2019-04-12T19:40:29.335Z,10.28
2019-04-12T19:42:59.219Z,10.97
2019-04-12T19:45:29.452Z,14.80
2019-04-12T19:47:59.385Z,10.60
2019-04-12T19:50:29.326Z,9.55
2019-04-12T19:52:59.234Z,12.67
2019-04-12T19:55:29.137Z,9.95
2019-04-12T19:57:58.909Z,10.43
2019-04-12T20:00:28.877Z,9.10
2019-04-12T20:02:58.638Z,15.10
2019-04-12T20:05:28.595Z,8.90
2019-04-12T20:07:58.554Z,10.93
2019-04-12T20:10:28.569Z,9.97
2019-04-12T20:12:58.445Z,10.25
2019-04-12T20:15:28.486Z,8.60
2019-04-12T20:17:58.336Z,16.17
2019-04-12T20:20:28.243Z,10.45
2019-04-12T20:22:58.062Z,9.88
2019-04-12T20:25:27.946Z,9.13
2019-04-12T20:27:57.832Z,10.00
2019-04-12T20:30:30.243Z,9.87
2019-04-12T20:33:04.521Z,10.85
2019-04-12T20:35:30.668Z,10.43
2019-04-12T20:38:00.558Z,10.83
2019-04-12T20:40:31.349Z,9.20
2019-04-12T20:43:01.187Z,13.00
2019-04-12T20:45:31.956Z,14.23
2019-04-12T20:48:01.747Z,14.90
2019-04-12T20:50:32.944Z,11.08
2019-04-12T20:53:02.776Z,9.68
2019-04-12T20:55:32.605Z,8.05
2019-04-12T20:58:02.578Z,8.10
2019-04-12T21:00:32.391Z,9.38
2019-04-12T21:03:02.229Z,7.30
2019-04-12T21:05:32.971Z,7.90
2019-04-12T21:08:03.043Z,8.07
2019-04-12T21:10:32.853Z,9.03
2019-04-12T21:13:02.727Z,8.08
2019-04-12T21:15:35.244Z,8.47
2019-04-12T21:18:05.231Z,9.78
2019-04-12T21:20:37.813Z,9.58
2019-04-12T21:23:08.117Z,9.40
2019-04-12T21:25:37.942Z,9.23
2019-04-12T21:28:08.018Z,13.22
2019-04-12T21:30:38.008Z,8.85
2019-04-12T21:33:09.744Z,11.60
2019-04-12T21:35:39.616Z,9.08
2019-04-12T21:38:09.496Z,10.00
2019-04-12T21:40:39.434Z,7.67
2019-04-12T21:43:09.212Z,8.73
2019-04-12T21:45:39.394Z,8.05
2019-04-12T21:48:09.894Z,8.90
2019-04-12T21:50:39.924Z,9.68
2019-04-12T21:53:09.748Z,8.38
2019-04-12T21:55:39.580Z,9.15
2019-04-12T21:58:09.416Z,14.53
2019-04-12T22:00:56.602Z,12.80
2019-04-12T22:03:40.064Z,10.10
2019-04-12T22:06:00.298Z,11.60
2019-04-12T22:08:31.797Z,11.85
2019-04-12T22:11:01.675Z,16.67
2019-04-12T22:13:31.675Z,12.05
2019-04-12T22:16:01.548Z,9.13
2019-04-12T22:18:31.902Z,8.55
2019-04-12T22:21:01.857Z,11.40
2019-04-12T22:23:34.571Z,7.17
2019-04-12T22:26:06.232Z,10.38
2019-04-12T22:28:36.124Z,11.20
2019-04-12T22:31:06.063Z,13.35
2019-04-12T22:33:39.157Z,11.33
2019-04-12T22:36:09.075Z,9.93
2019-04-12T22:38:39.187Z,12.05
2019-04-12T22:41:08.981Z,10.35
2019-04-12T22:43:41.105Z,7.22
2019-04-12T22:46:11.401Z,14.63
2019-04-12T22:48:41.278Z,9.88
2019-04-12T22:51:11.633Z,13.50
2019-04-12T22:53:41.393Z,13.10
2019-04-12T22:56:11.404Z,10.95
2019-04-12T22:58:41.139Z,8.55
2019-04-12T23:01:13.963Z,14.07
2019-04-12T23:03:43.905Z,8.23
2019-04-12T23:06:13.751Z,12.18
2019-04-12T23:08:43.531Z,8.85
2019-04-12T23:11:13.479Z,11.90
2019-04-12T23:13:43.255Z,9.20
2019-04-12T23:16:13.099Z,10.28
2019-04-12T23:18:43.006Z,15.90
2019-04-12T23:21:13.753Z,11.53
2019-04-12T23:23:43.576Z,11.00
2019-04-12T23:26:13.489Z,11.22
2019-04-12T23:28:43.309Z,8.90
2019-04-12T23:31:25.951Z,10.03
2019-04-12T23:34:17.183Z,11.80
2019-04-12T23:36:45.609Z,9.10
2019-04-12T23:39:15.556Z,9.90
2019-04-12T23:41:45.741Z,11.28
2019-04-12T23:44:15.479Z,10.98
2019-04-12T23:46:45.228Z,14.40
2019-04-12T23:49:15.038Z,10.30
2019-04-12T23:51:45.220Z,17.25
2019-04-12T23:54:15.046Z,9.18
2019-04-12T23:56:44.822Z,13.90
2019-04-12T23:59:14.660Z,13.08
